Time;durP1;ratioP1;P1;durP2;ratioP2;P2;SDS_P1;SDS_P2;PMS_P1;PMS_P2;Temp;Humidity;BMP_temperature;BMP_pressure;BME280_temperature;BME280_humidity;BME280_pressure;Samples;Min_cycle;Max_cycle;Signal;HPM_P1;HPM_P2
2022/06/20 00:00:19;;;;;;;2.58;0.90;;;23.00;56.80;;;;;;4956626;28;87242;-83
2022/06/20 00:02:49;;;;;;;1.77;1.10;;;23.00;56.80;;;;;;4956091;28;88043;-87
2022/06/20 00:05:22;;;;;;;2.25;1.05;;;23.00;56.90;;;;;;4956886;28;89215;-83
2022/06/20 00:07:48;;;;;;;1.88;1.00;;;23.00;56.90;;;;;;4956529;28;87735;-84
2022/06/20 00:10:17;;;;;;;2.05;1.17;;;23.00;57.10;;;;;;4955275;28;87686;-85
2022/06/20 00:12:44;;;;;;;2.33;1.10;;;23.00;57.10;;;;;;4955338;28;87558;-83
2022/06/20 00:15:31;;;;;;;2.03;1.00;;;23.00;57.10;;;;;;4957013;28;87286;-88
2022/06/20 00:17:57;;;;;;;2.55;1.10;;;23.00;57.00;;;;;;4955738;28;87428;-84
2022/06/20 00:20:24;;;;;;;1.95;1.00;;;23.00;56.90;;;;;;4955958;28;88116;-87
2022/06/20 00:22:49;;;;;;;2.65;0.90;;;23.00;56.80;;;;;;4957489;28;88429;-87
2022/06/20 00:25:19;;;;;;;7.22;1.30;;;23.00;56.80;;;;;;4955459;28;87122;-84
2022/06/20 00:27:45;;;;;;;2.55;1.10;;;23.00;56.80;;;;;;4955347;28;87867;-83
2022/06/20 00:30:15;;;;;;;2.17;0.98;;;23.00;56.80;;;;;;4955711;28;88672;-82
2022/06/20 00:32:40;;;;;;;2.70;1.00;;;23.00;56.80;;;;;;4955762;28;88734;-84
2022/06/20 00:35:07;;;;;;;1.83;0.95;;;23.00;56.80;;;;;;4955455;28;87906;-82
2022/06/20 00:37:32;;;;;;;1.52;1.00;;;22.90;56.80;;;;;;4953994;28;88196;-83
2022/06/20 00:39:58;;;;;;;1.27;0.90;;;22.90;56.90;;;;;;4954909;28;88108;-81
2022/06/20 00:42:24;;;;;;;1.88;0.93;;;23.00;57.00;;;;;;4954681;28;87930;-83
2022/06/20 00:45:01;;;;;;;4.13;1.42;;;23.00;57.00;;;;;;4954834;28;87017;-81
2022/06/20 00:47:34;;;;;;;1.30;0.90;;;22.90;56.90;;;;;;4953187;28;87005;-82
2022/06/20 00:50:06;;;;;;;2.22;1.23;;;23.00;57.00;;;;;;4955056;28;89661;-82
2022/06/20 00:55:57;;;;;;;2.27;1.20;;;23.00;57.10;;;;;;4949101;28;88570;-83
2022/06/20 00:58:23;;;;;;;2.65;1.10;;;23.00;57.00;;;;;;4955610;28;87509;-82
2022/06/20 01:00:49;;;;;;;2.22;1.00;;;22.90;56.80;;;;;;4956178;28;87645;-83
2022/06/20 01:03:21;;;;;;;2.95;0.98;;;22.90;57.00;;;;;;4956183;28;88987;-82
2022/06/20 01:05:58;;;;;;;1.63;1.00;;;22.90;56.80;;;;;;4954638;28;87931;-82
2022/06/20 01:08:47;;;;;;;1.85;0.95;;;22.90;56.80;;;;;;4954503;28;87856;-83
2022/06/20 01:11:26;;;;;;;1.80;1.00;;;22.90;56.70;;;;;;4955576;28;87997;-83
2022/06/20 01:13:52;;;;;;;;;;;22.90;56.90;;;;;;4955461;28;86952;-83
2022/06/20 01:16:25;;;;;;;2.42;1.33;;;23.00;56.80;;;;;;4955167;28;87604;-83
2022/06/20 01:18:52;;;;;;;1.90;0.95;;;23.00;56.70;;;;;;4954220;28;87408;-83
2022/06/20 01:21:34;;;;;;;1.17;0.90;;;22.90;56.60;;;;;;4954659;28;89251;-82
2022/06/20 01:24:30;;;;;;;1.67;0.90;;;22.90;56.60;;;;;;4954251;28;89782;-83
2022/06/20 01:27:17;;;;;;;1.48;0.80;;;22.90;56.80;;;;;;4953798;28;87056;-82
2022/06/20 01:29:43;;;;;;;1.88;0.93;;;22.90;56.70;;;;;;4953974;28;86990;-83
2022/06/20 01:32:09;;;;;;;1.80;0.93;;;23.00;56.70;;;;;;4954102;28;87806;-82
2022/06/20 01:34:35;;;;;;;1.30;0.90;;;22.90;56.50;;;;;;4954837;28;87581;-82
2022/06/20 01:40:04;;;;;;;1.67;0.88;;;22.90;56.50;;;;;;4955565;28;86203;-82
2022/06/20 01:42:32;;;;;;;1.15;0.93;;;22.90;56.50;;;;;;4954799;28;87612;-83
2022/06/20 01:45:57;;;;;;;1.48;0.80;;;22.90;56.60;;;;;;4954201;28;88402;-82
2022/06/20 01:47:52;;;;;;;1.23;0.80;;;22.90;56.50;;;;;;4953304;28;88649;-82
2022/06/20 01:50:17;;;;;;;2.17;1.25;;;22.90;56.40;;;;;;4953401;28;87432;-82
2022/06/20 01:52:44;;;;;;;1.42;0.88;;;22.90;57.20;;;;;;4953991;28;87848;-83
2022/06/20 01:55:19;;;;;;;1.33;0.80;;;22.90;56.60;;;;;;4954810;28;87212;-82
2022/06/20 01:57:48;;;;;;;1.23;0.93;;;22.90;56.70;;;;;;4954959;28;87339;-82
2022/06/20 02:00:19;;;;;;;2.13;1.17;;;22.90;56.60;;;;;;4940307;28;92141;-83
2022/06/20 02:02:51;;;;;;;1.70;0.80;;;22.90;56.90;;;;;;4955310;28;88125;-82
2022/06/20 02:05:22;;;;;;;1.55;1.15;;;22.90;56.80;;;;;;4953488;28;87509;-81
2022/06/20 02:07:48;;;;;;;1.10;0.90;;;22.90;56.70;;;;;;4952337;28;88007;-83
2022/06/20 02:10:19;;;;;;;1.35;0.70;;;22.90;56.70;;;;;;4955405;28;87178;-83
2022/06/20 02:12:46;;;;;;;1.00;0.73;;;22.90;56.70;;;;;;4953136;28;89025;-84
2022/06/20 02:15:18;;;;;;;1.42;0.95;;;22.90;56.60;;;;;;4952670;28;88629;-83
2022/06/20 02:17:51;;;;;;;2.08;0.95;;;22.90;56.70;;;;;;4953482;28;87120;-83
2022/06/20 02:20:27;;;;;;;1.55;1.02;;;22.90;56.70;;;;;;4943241;28;88265;-87
2022/06/20 02:22:53;;;;;;;1.27;0.85;;;22.90;56.80;;;;;;4952870;28;86999;-88
2022/06/20 02:25:26;;;;;;;1.13;0.60;;;22.90;56.60;;;;;;4954653;28;87362;-85
2022/06/20 02:28:02;;;;;;;1.30;0.90;;;22.80;56.60;;;;;;4954505;28;87428;-87
2022/06/20 02:30:29;;;;;;;1.15;0.77;;;22.90;56.70;;;;;;4943704;28;89821;-83
2022/06/20 02:33:23;;;;;;;2.30;0.90;;;22.90;56.70;;;;;;4955200;28;87845;-87
2022/06/20 02:35:49;;;;;;;1.02;0.82;;;22.90;56.80;;;;;;4953031;28;87861;-87
2022/06/20 02:38:15;;;;;;;1.10;0.80;;;22.90;56.70;;;;;;4953320;28;88234;-83
2022/06/20 02:40:42;;;;;;;1.27;0.85;;;22.80;56.60;;;;;;4954147;28;87656;-82
2022/06/20 02:43:25;;;;;;;1.20;0.90;;;22.80;56.70;;;;;;4952858;28;87917;-83
2022/06/20 02:45:53;;;;;;;1.00;0.68;;;22.90;56.70;;;;;;4952131;28;87630;-87
2022/06/20 02:48:19;;;;;;;1.35;0.85;;;22.90;56.80;;;;;;4953211;28;87684;-83
2022/06/20 02:50:51;;;;;;;1.38;0.88;;;22.80;56.70;;;;;;4953263;28;87445;-81
2022/06/20 02:53:32;;;;;;;2.20;0.90;;;22.90;56.80;;;;;;4952417;28;87504;-83
2022/06/20 02:55:59;;;;;;;1.48;0.90;;;22.90;56.90;;;;;;4952759;28;86790;-82
2022/06/20 02:58:29;;;;;;;1.88;0.95;;;22.90;57.00;;;;;;4953737;28;86928;-83
2022/06/20 03:01:07;;;;;;;1.27;0.73;;;22.90;56.90;;;;;;4961773;28;87084;-82
2022/06/20 03:03:38;;;;;;;1.33;0.85;;;22.90;56.90;;;;;;4953117;28;89036;-82
2022/06/20 03:06:06;;;;;;;1.13;0.80;;;22.90;56.70;;;;;;4952318;28;88756;-82
2022/06/20 03:08:32;;;;;;;1.60;0.70;;;22.80;56.70;;;;;;4953184;28;87718;-83
2022/06/20 03:11:04;;;;;;;1.45;1.00;;;22.80;56.70;;;;;;4953023;28;87401;-82
2022/06/20 03:13:50;;;;;;;1.38;0.85;;;22.80;56.70;;;;;;4941196;28;90850;-83
2022/06/20 03:16:17;;;;;;;1.48;0.80;;;22.80;56.70;;;;;;4951955;28;87806;-85
2022/06/20 03:18:49;;;;;;;1.30;0.70;;;22.90;56.70;;;;;;4945394;28;87472;-84
2022/06/20 03:21:21;;;;;;;1.02;0.88;;;22.90;56.70;;;;;;4957038;28;87628;-85
2022/06/20 03:23:47;;;;;;;0.90;0.80;;;22.80;56.70;;;;;;4956165;28;88161;-83
2022/06/20 03:26:20;;;;;;;1.33;0.80;;;22.80;56.60;;;;;;4955838;28;87045;-83
2022/06/20 03:28:46;;;;;;;1.60;0.88;;;22.80;56.70;;;;;;4955908;28;88370;-84
2022/06/20 03:31:13;;;;;;;1.35;0.80;;;22.80;56.80;;;;;;4956629;28;87346;-84
2022/06/20 03:33:39;;;;;;;1.25;0.70;;;22.80;56.60;;;;;;4956863;28;87849;-84
2022/06/20 03:36:17;;;;;;;0.98;0.80;;;22.80;56.60;;;;;;4954932;28;87406;-83
2022/06/20 03:38:46;;;;;;;2.17;0.73;;;22.80;56.80;;;;;;4956881;28;87544;-84
2022/06/20 03:41:14;;;;;;;;;;;22.80;56.80;;;;;;4958276;28;87761;-83
2022/06/20 03:43:45;;;;;;;0.90;0.70;;;22.80;56.70;;;;;;4958223;28;88116;-82
2022/06/20 03:46:19;;;;;;;2.15;0.98;;;22.80;56.60;;;;;;4956380;28;90542;-86
2022/06/20 03:49:08;;;;;;;1.02;0.63;;;22.80;56.70;;;;;;4957945;28;87309;-83
2022/06/20 03:52:10;;;;;;;1.27;0.70;;;22.80;56.80;;;;;;4955083;28;87403;-85
2022/06/20 03:54:50;;;;;;;1.17;0.70;;;22.80;56.60;;;;;;4956238;28;87955;-82
2022/06/20 03:57:22;;;;;;;1.48;0.98;;;22.80;56.60;;;;;;4956499;28;87825;-83
2022/06/20 04:00:13;;;;;;;1.42;0.80;;;22.80;56.60;;;;;;4955730;28;87988;-82
2022/06/20 04:02:53;;;;;;;1.27;0.80;;;22.80;56.80;;;;;;4949081;28;87191;-85
2022/06/20 04:05:26;;;;;;;2.05;0.80;;;22.80;56.90;;;;;;4954585;28;88310;-83
2022/06/20 04:08:08;;;;;;;2.45;0.88;;;22.80;56.70;;;;;;4954222;28;87836;-82
2022/06/20 04:10:59;;;;;;;1.42;0.88;;;22.80;56.90;;;;;;4955441;28;87934;-85
2022/06/20 04:13:42;;;;;;;1.95;0.90;;;22.80;56.70;;;;;;4938238;28;87813;-82
2022/06/20 04:16:29;;;;;;;1.10;0.75;;;22.80;56.70;;;;;;4961269;28;87532;-82
2022/06/20 04:19:27;;;;;;;1.67;0.90;;;22.80;56.90;;;;;;4956391;28;87623;-85
2022/06/20 04:22:01;;;;;;;1.42;0.93;;;22.80;56.90;;;;;;4954934;28;88851;-84
2022/06/20 04:24:45;;;;;;;1.42;0.80;;;22.80;56.80;;;;;;4955195;28;88123;-88
2022/06/20 04:27:41;;;;;;;1.50;0.95;;;22.80;56.90;;;;;;4955171;28;88455;-88
2022/06/20 04:30:18;;;;;;;1.45;1.00;;;22.80;56.90;;;;;;4951256;28;87607;-86
2022/06/20 04:32:50;;;;;;;2.15;0.82;;;22.80;56.90;;;;;;4956208;28;88125;-83
2022/06/20 04:35:54;;;;;;;0.93;0.70;;;22.80;56.80;;;;;;4963812;28;89619;-83
2022/06/20 04:38:30;;;;;;;1.35;0.90;;;22.80;56.80;;;;;;4895435;28;89403;-84
2022/06/20 04:40:59;;;;;;;0.73;0.57;;;22.80;56.90;;;;;;4957264;28;86996;-83
2022/06/20 04:43:46;;;;;;;0.77;0.63;;;22.80;56.90;;;;;;4955739;28;87400;-82
2022/06/20 04:46:28;;;;;;;1.10;0.70;;;22.80;56.70;;;;;;4955058;28;87442;-81
2022/06/20 04:48:54;;;;;;;1.42;0.80;;;22.80;56.80;;;;;;4955315;28;88855;-84
2022/06/20 04:51:27;;;;;;;1.13;0.80;;;22.80;56.70;;;;;;4955332;28;88016;-82
2022/06/20 04:53:53;;;;;;;1.13;0.90;;;22.70;56.60;;;;;;4944216;28;87166;-83
2022/06/20 04:56:28;;;;;;;0.98;0.73;;;22.80;56.70;;;;;;4953988;28;87760;-82
2022/06/20 04:59:26;;;;;;;1.75;0.88;;;22.70;56.50;;;;;;4954867;28;88164;-82
2022/06/20 05:01:53;;;;;;;1.00;0.70;;;22.70;56.70;;;;;;4954000;28;88080;-81
2022/06/20 05:04:37;;;;;;;1.38;0.73;;;22.80;56.70;;;;;;4954901;28;86924;-81
2022/06/20 05:07:06;;;;;;;1.10;0.80;;;22.80;56.80;;;;;;4954481;28;86340;-82
2022/06/20 05:09:43;;;;;;;1.13;0.75;;;22.80;56.80;;;;;;4954269;28;88882;-82
2022/06/20 05:12:22;;;;;;;1.33;0.70;;;22.80;56.70;;;;;;4954684;28;88131;-81
2022/06/20 05:15:05;;;;;;;1.77;0.70;;;22.80;56.60;;;;;;4943021;28;87921;-82
2022/06/20 05:17:33;;;;;;;1.15;0.80;;;22.70;56.70;;;;;;4944701;28;87833;-81
2022/06/20 05:20:07;;;;;;;1.33;0.70;;;22.70;56.70;;;;;;4924530;28;90266;-80
2022/06/20 05:22:41;;;;;;;0.85;0.80;;;22.80;56.80;;;;;;4953596;28;89013;-82
2022/06/20 05:25:11;;;;;;;2.00;0.88;;;22.70;56.60;;;;;;4953306;28;86941;-82
2022/06/20 05:27:57;;;;;;;0.75;0.63;;;22.80;56.70;;;;;;4943679;28;88452;-82
2022/06/20 05:30:27;;;;;;;1.27;0.77;;;22.80;56.60;;;;;;4953673;28;87746;-83
2022/06/20 05:33:16;;;;;;;1.98;0.80;;;22.70;57.40;;;;;;4953291;28;87531;-83
2022/06/20 05:35:49;;;;;;;1.58;0.75;;;22.80;56.90;;;;;;4942351;28;87181;-82
2022/06/20 05:38:26;;;;;;;0.98;0.70;;;22.80;56.80;;;;;;4942589;28;90352;-81
2022/06/20 05:41:01;;;;;;;1.27;0.70;;;22.80;56.80;;;;;;4951601;28;89955;-82
2022/06/20 05:43:30;;;;;;;1.05;0.68;;;22.70;56.70;;;;;;4952086;28;89650;-82
2022/06/20 05:46:03;;;;;;;0.95;0.70;;;22.80;56.80;;;;;;4953385;28;88841;-81
2022/06/20 05:48:48;;;;;;;1.15;0.80;;;22.70;56.80;;;;;;4924978;28;90088;-82
2022/06/20 05:51:17;;;;;;;2.20;0.65;;;22.80;56.80;;;;;;4955474;28;87530;-83
2022/06/20 05:54:09;;;;;;;2.17;0.90;;;22.80;56.60;;;;;;4954741;28;87552;-84
2022/06/20 05:56:42;;;;;;;6.03;0.80;;;22.70;56.60;;;;;;4952941;28;87266;-83
2022/06/20 05:59:25;;;;;;;1.98;0.80;;;22.80;56.50;;;;;;4956138;28;89174;-82
2022/06/20 06:01:52;;;;;;;4.15;0.70;;;22.80;56.70;;;;;;4953618;28;87707;-83
2022/06/20 06:04:33;;;;;;;1.75;0.82;;;22.70;56.80;;;;;;4956028;28;87818;-88
2022/06/20 06:07:36;;;;;;;5.25;1.40;;;22.80;56.60;;;;;;4945738;28;88439;-85
2022/06/20 06:10:25;;;;;;;5.60;1.90;;;22.70;56.00;;;;;;4949719;28;86889;-88
2022/06/20 06:13:19;;;;;;;8.10;2.13;;;22.70;55.60;;;;;;4958138;28;87728;-87
2022/06/20 06:19:22;;;;;;;9.10;1.95;;;22.60;55.10;;;;;;4954367;28;87735;-81
2022/06/20 06:21:51;;;;;;;13.00;2.10;;;22.60;54.50;;;;;;4952303;28;87426;-82
2022/06/20 06:24:20;;;;;;;7.70;1.92;;;22.50;54.10;;;;;;4954307;28;87767;-80
2022/06/20 06:26:49;;;;;;;8.50;2.00;;;22.40;53.80;;;;;;4955437;28;89374;-82
2022/06/20 06:29:42;;;;;;;7.32;2.20;;;22.40;53.60;;;;;;4956387;28;87763;-83
2022/06/20 06:32:43;;;;;;;7.32;2.10;;;22.30;53.20;;;;;;4940344;28;89587;-82
2022/06/20 06:35:36;;;;;;;8.02;2.10;;;22.30;53.10;;;;;;4885171;28;89207;-80
2022/06/20 06:38:17;;;;;;;8.60;2.13;;;22.30;53.10;;;;;;4954006;28;88043;-82
2022/06/20 06:41:06;;;;;;;7.68;1.77;;;22.30;52.80;;;;;;4952154;28;87589;-82
2022/06/20 06:43:38;;;;;;;10.48;2.28;;;22.20;52.70;;;;;;5051246;22;89217;-66
2022/06/20 06:46:11;;;;;;;10.45;1.70;;;22.20;52.60;;;;;;4937155;28;89154;-67
2022/06/20 06:48:39;;;;;;;10.65;2.10;;;22.20;52.40;;;;;;4946423;28;90699;-69
2022/06/20 06:51:14;;;;;;;11.57;2.60;;;22.20;52.30;;;;;;4950650;28;87849;-64
2022/06/20 06:53:52;;;;;;;7.25;1.80;;;22.20;52.20;;;;;;4950764;28;87273;-64
2022/06/20 06:56:34;;;;;;;7.22;1.95;;;22.20;52.40;;;;;;4949000;28;89924;-64
2022/06/20 06:59:40;;;;;;;14.23;2.03;;;22.20;52.50;;;;;;4918554;28;87668;-64
2022/06/20 07:02:14;;;;;;;9.20;1.95;;;22.10;52.50;;;;;;4960970;28;88410;-65
2022/06/20 07:05:22;;;;;;;7.40;1.90;;;22.20;52.30;;;;;;4963734;28;88385;-68
2022/06/20 07:07:55;;;;;;;7.18;1.67;;;22.20;52.20;;;;;;4906546;28;87838;-66
2022/06/20 07:10:30;;;;;;;9.75;1.60;;;22.20;52.40;;;;;;4964678;28;88449;-69
2022/06/20 07:13:04;;;;;;;7.75;2.03;;;22.10;52.20;;;;;;4966860;28;87419;-64
2022/06/20 07:15:32;;;;;;;11.48;2.00;;;22.10;52.20;;;;;;4967318;28;88250;-69
2022/06/20 07:18:05;;;;;;;6.68;1.90;;;22.20;52.00;;;;;;4963834;28;88562;-67
2022/06/20 07:20:39;;;;;;;8.45;1.60;;;22.20;52.10;;;;;;4965993;28;89978;-68
2022/06/20 07:23:09;;;;;;;6.75;1.73;;;22.20;52.10;;;;;;4968273;28;87297;-65
2022/06/20 07:25:40;;;;;;;5.18;1.90;;;22.10;51.70;;;;;;4961869;28;87261;-68
2022/06/20 07:28:34;;;;;;;8.73;2.00;;;22.10;51.70;;;;;;4967189;28;89946;-66
2022/06/20 07:31:26;;;;;;;7.72;1.88;;;22.10;51.80;;;;;;4954684;28;89915;-67
2022/06/20 07:33:53;;;;;;;12.15;1.55;;;22.10;52.00;;;;;;4965048;28;87442;-65
2022/06/20 07:36:27;;;;;;;11.60;1.70;;;22.10;52.60;;;;;;4956374;28;88739;-66
2022/06/20 07:39:01;;;;;;;4.50;1.80;;;22.10;51.90;;;;;;4969837;28;90685;-66
2022/06/20 07:41:42;;;;;;;9.07;2.00;;;22.10;52.00;;;;;;4981457;28;89456;-66
2022/06/20 07:44:31;;;;;;;8.40;1.90;;;22.10;52.10;;;;;;4966301;28;87014;-65
2022/06/20 07:47:05;;;;;;;7.43;1.55;;;22.10;52.00;;;;;;4971490;28;87299;-64
2022/06/20 07:49:38;;;;;;;6.57;1.63;;;22.10;52.00;;;;;;4973156;28;87577;-64
2022/06/20 07:52:15;;;;;;;7.55;1.80;;;22.10;52.40;;;;;;4973811;28;88446;-68
2022/06/20 07:54:47;;;;;;;8.77;2.03;;;22.00;53.00;;;;;;4965884;28;88516;-63
2022/06/20 07:57:20;;;;;;;8.35;2.13;;;22.10;53.70;;;;;;4964736;28;89924;-65
2022/06/20 07:59:56;;;;;;;7.07;2.08;;;22.10;54.70;;;;;;4967882;28;88162;-65
2022/06/20 08:02:34;;;;;;;4.45;1.50;;;22.10;55.40;;;;;;4965899;28;89228;-67
2022/06/20 08:05:06;;;;;;;6.88;1.92;;;22.10;56.10;;;;;;4929774;28;88527;-65
2022/06/20 08:07:42;;;;;;;9.63;2.15;;;22.10;56.50;;;;;;4956049;28;89127;-66
2022/06/20 08:10:10;;;;;;;8.77;1.90;;;22.10;57.50;;;;;;4967918;28;90617;-65
2022/06/20 08:13:05;;;;;;;7.28;1.98;;;22.20;57.70;;;;;;4968847;28;87826;-69
2022/06/20 08:15:44;;;;;;;7.25;1.60;;;22.20;57.80;;;;;;4962979;28;87129;-66
2022/06/20 08:18:09;;;;;;;7.30;2.10;;;22.30;57.90;;;;;;4982343;28;88358;-64
2022/06/20 08:20:42;;;;;;;9.88;2.03;;;22.30;57.80;;;;;;4974729;28;89161;-66
2022/06/20 08:23:18;;;;;;;6.35;2.05;;;22.30;57.30;;;;;;4967886;28;91838;-64
2022/06/20 08:25:52;;;;;;;12.57;2.65;;;22.30;57.20;;;;;;4970543;28;87460;-64
2022/06/20 08:28:21;;;;;;;11.30;2.40;;;22.40;57.00;;;;;;4969540;28;87261;-64
2022/06/20 08:30:52;;;;;;;16.48;2.33;;;22.30;57.20;;;;;;4969743;28;90893;-66
2022/06/20 08:33:42;;;;;;;10.48;2.50;;;22.30;56.90;;;;;;4972264;28;88132;-64
2022/06/20 08:36:20;;;;;;;8.00;2.38;;;22.30;56.80;;;;;;4973807;28;88006;-65
2022/06/20 08:38:56;;;;;;;6.80;2.20;;;22.40;56.50;;;;;;4969524;28;89645;-66
2022/06/20 08:41:59;;;;;;;5.47;1.80;;;22.40;56.40;;;;;;4971071;28;88129;-66
2022/06/20 08:44:40;;;;;;;8.27;2.40;;;22.40;56.00;;;;;;4968940;28;89610;-69
2022/06/20 08:47:40;;;;;;;7.60;2.20;;;22.40;55.40;;;;;;4969157;28;88939;-69
2022/06/20 08:50:08;;;;;;;8.40;2.20;;;22.40;55.70;;;;;;4968715;28;87134;-66
2022/06/20 08:53:12;;;;;;;9.55;2.22;;;22.40;55.30;;;;;;4958986;28;88829;-64
2022/06/20 08:55:47;;;;;;;10.00;2.47;;;22.50;55.50;;;;;;4971655;28;87801;-66
2022/06/20 08:58:28;;;;;;;11.18;3.03;;;22.40;55.40;;;;;;4969048;28;87783;-66
2022/06/20 09:01:18;;;;;;;9.70;2.42;;;22.50;55.20;;;;;;4969189;28;87958;-64
2022/06/20 09:04:19;;;;;;;7.55;2.22;;;22.50;54.90;;;;;;4976154;28;87606;-64
2022/06/20 09:07:01;;;;;;;8.73;1.90;;;22.50;54.50;;;;;;4971241;28;87805;-64
2022/06/20 09:09:42;;;;;;;6.78;1.83;;;22.50;54.50;;;;;;4969734;28;88353;-65
2022/06/20 09:12:55;;;;;;;9.80;1.58;;;22.50;54.90;;;;;;4969994;28;86917;-66
2022/06/20 09:15:59;;;;;;;8.35;2.28;;;22.50;55.20;;;;;;4966615;28;93624;-63
2022/06/20 09:18:56;;;;;;;7.15;2.00;;;22.50;54.80;;;;;;4955186;28;88438;-68
2022/06/20 09:21:37;;;;;;;20.45;2.40;;;22.50;54.70;;;;;;4974888;28;88134;-64
2022/06/20 09:24:29;;;;;;;13.10;1.92;;;22.50;54.30;;;;;;4983470;28;87577;-69
2022/06/20 09:27:08;;;;;;;6.70;1.80;;;22.50;53.50;;;;;;4971015;28;89208;-64
2022/06/20 09:29:49;;;;;;;7.60;1.70;;;22.50;53.20;;;;;;4968938;28;89321;-66
2022/06/20 09:32:38;;;;;;;30.92;3.65;;;22.50;53.10;;;;;;4969433;28;87315;-68
2022/06/20 09:35:41;;;;;;;22.73;3.50;;;22.50;52.40;;;;;;4965508;28;88265;-65
2022/06/20 09:38:31;;;;;;;14.95;3.03;;;22.40;52.00;;;;;;4968905;28;89078;-63
2022/06/20 09:41:25;;;;;;;9.93;1.85;;;22.40;52.10;;;;;;4974828;28;88541;-64
2022/06/20 09:44:05;;;;;;;9.32;2.60;;;22.40;51.90;;;;;;4966845;28;87857;-66
2022/06/20 09:47:09;;;;;;;11.43;3.22;;;22.40;52.40;;;;;;4966983;28;86955;-66
2022/06/20 09:49:39;;;;;;;13.40;2.80;;;22.40;52.60;;;;;;4967305;28;88995;-65
2022/06/20 09:52:42;;;;;;;11.77;2.40;;;22.40;52.60;;;;;;4968247;28;88899;-65
2022/06/20 09:55:30;;;;;;;14.05;2.00;;;22.40;52.20;;;;;;4970555;28;87486;-67
2022/06/20 09:58:12;;;;;;;7.18;1.85;;;22.40;52.20;;;;;;4975260;28;87730;-64
2022/06/20 10:00:56;;;;;;;6.65;1.88;;;22.40;52.00;;;;;;4966978;28;89287;-65
2022/06/20 10:03:30;;;;;;;9.52;1.83;;;22.40;51.30;;;;;;4970871;28;87237;-67
2022/06/20 10:06:06;;;;;;;6.03;1.42;;;22.40;51.60;;;;;;4970781;28;87757;-64
2022/06/20 10:08:40;;;;;;;6.55;1.55;;;22.40;52.20;;;;;;4970060;28;86939;-67
2022/06/20 10:11:21;;;;;;;10.70;1.77;;;22.40;52.20;;;;;;4965809;28;90415;-68
2022/06/20 10:14:05;;;;;;;9.70;2.55;;;22.40;53.00;;;;;;4970566;28;89343;-64
2022/06/20 10:16:37;;;;;;;7.40;2.30;;;22.50;53.40;;;;;;4972867;28;88093;-64
2022/06/20 10:19:31;;;;;;;8.75;1.75;;;22.50;53.40;;;;;;4969676;28;88019;-67
2022/06/20 10:22:21;;;;;;;7.97;2.08;;;22.50;52.90;;;;;;4966366;28;89643;-70
2022/06/20 10:25:16;;;;;;;7.33;1.77;;;22.40;52.20;;;;;;4958185;28;88946;-70
2022/06/20 10:28:04;;;;;;;10.82;2.30;;;22.40;52.10;;;;;;4969750;28;87034;-66
2022/06/20 10:30:51;;;;;;;6.97;2.22;;;22.40;52.90;;;;;;4979229;28;86660;-67
2022/06/20 10:33:50;;;;;;;7.25;1.75;;;22.50;53.60;;;;;;4970353;28;88297;-66
2022/06/20 10:36:42;;;;;;;6.97;1.85;;;22.50;54.00;;;;;;4926521;28;88752;-69
2022/06/20 10:39:10;;;;;;;6.75;1.77;;;22.50;53.80;;;;;;4966323;28;88916;-66
2022/06/20 10:41:47;;;;;;;6.38;1.88;;;22.50;53.50;;;;;;4975869;28;87214;-66
2022/06/20 10:44:22;;;;;;;6.30;1.70;;;22.50;53.50;;;;;;4967586;28;88900;-64
2022/06/20 10:46:54;;;;;;;6.57;1.77;;;22.50;53.40;;;;;;4969340;28;88078;-66
2022/06/20 10:49:36;;;;;;;7.40;1.75;;;22.50;53.80;;;;;;4966387;28;88752;-64
2022/06/20 10:52:23;;;;;;;10.32;1.92;;;22.50;54.00;;;;;;4966161;28;88538;-64
2022/06/20 10:54:52;;;;;;;8.50;2.60;;;22.50;53.90;;;;;;4969305;28;89168;-65
2022/06/20 10:57:36;;;;;;;4.70;1.87;;;22.50;53.40;;;;;;4969705;28;87357;-68
2022/06/20 11:00:07;;;;;;;6.60;1.75;;;22.50;53.70;;;;;;4967786;28;87320;-65
2022/06/20 11:02:57;;;;;;;4.95;1.67;;;22.50;53.40;;;;;;4966416;28;88554;-67
2022/06/20 11:05:50;;;;;;;4.75;1.80;;;22.50;52.70;;;;;;4968016;28;88852;-65
2022/06/20 11:08:43;;;;;;;7.03;2.00;;;22.50;52.20;;;;;;4969035;28;87815;-66
2022/06/20 11:11:30;;;;;;;6.72;1.88;;;22.50;52.30;;;;;;4979619;28;87817;-64
2022/06/20 11:14:10;;;;;;;7.55;2.17;;;22.50;51.90;;;;;;4966910;28;89416;-66
2022/06/20 11:17:02;;;;;;;5.57;1.52;;;22.50;52.60;;;;;;4964173;28;89687;-65
2022/06/20 11:19:47;;;;;;;7.10;2.08;;;22.50;51.90;;;;;;4977187;28;90505;-64
2022/06/20 11:22:18;;;;;;;6.28;1.75;;;22.50;50.70;;;;;;4964702;28;88011;-66
2022/06/20 11:25:05;;;;;;;5.63;1.77;;;22.50;50.80;;;;;;4964886;28;88808;-65
2022/06/20 11:27:46;;;;;;;6.57;1.50;;;22.50;51.60;;;;;;4965450;28;88504;-64
2022/06/20 11:30:28;;;;;;;6.80;2.13;;;22.50;51.70;;;;;;4966210;28;88882;-64
2022/06/20 11:33:19;;;;;;;12.32;2.20;;;22.50;51.90;;;;;;4966506;28;89038;-64
2022/06/20 11:35:58;;;;;;;6.55;1.98;;;22.50;51.30;;;;;;4968944;28;87543;-65
2022/06/20 11:38:47;;;;;;;10.60;2.92;;;22.60;50.70;;;;;;4971630;28;88687;-65
2022/06/20 11:41:15;;;;;;;4.97;2.08;;;22.60;64.30;;;;;;4951623;28;88621;-63
2022/06/20 11:43:43;;;;;;;7.68;2.75;;;22.60;60.30;;;;;;4969200;28;88095;-64
2022/06/20 11:46:35;;;;;;;8.57;2.22;;;22.50;58.50;;;;;;4972002;28;87779;-67
2022/06/20 11:49:25;;;;;;;4.68;1.65;;;22.50;55.60;;;;;;4972495;28;87720;-64
2022/06/20 11:52:26;;;;;;;6.50;1.50;;;22.60;54.40;;;;;;4970942;28;88311;-66
2022/06/20 11:55:10;;;;;;;4.88;1.73;;;22.60;53.60;;;;;;4969222;28;87309;-65
2022/06/20 11:57:47;;;;;;;4.28;1.52;;;22.60;53.80;;;;;;4978205;28;88083;-67
2022/06/20 12:00:25;;;;;;;6.97;1.92;;;22.50;54.90;;;;;;4971670;28;89148;-63
2022/06/20 12:03:13;;;;;;;3.97;1.57;;;22.60;54.40;;;;;;4977286;28;88660;-64
2022/06/20 12:06:01;;;;;;;9.02;2.85;;;22.60;55.40;;;;;;4969773;28;88141;-68
2022/06/20 12:08:43;;;;;;;9.85;3.20;;;22.60;52.50;;;;;;4969408;28;88194;-64
2022/06/20 12:11:27;;;;;;;9.77;2.58;;;22.50;51.00;;;;;;4969914;28;89287;-64
2022/06/20 12:14:11;;;;;;;7.15;2.20;;;22.50;51.00;;;;;;4970952;28;88406;-66
2022/06/20 12:17:19;;;;;;;5.38;2.03;;;22.60;51.80;;;;;;4977148;28;87031;-67
2022/06/20 12:25:50;;;;;;;8.82;2.53;;;22.60;52.30;;;;;;4971539;28;87549;-64
2022/06/20 12:28:20;;;;;;;8.00;2.35;;;22.50;51.90;;;;;;4966081;28;88606;-71
2022/06/20 12:31:11;;;;;;;8.95;2.30;;;22.50;52.10;;;;;;4958979;28;88192;-63
2022/06/20 12:33:44;;;;;;;7.72;2.35;;;22.50;51.50;;;;;;4969259;28;89765;-66
2022/06/20 12:36:33;;;;;;;7.22;2.70;;;22.50;51.90;;;;;;4973730;28;90738;-64
2022/06/20 12:39:31;;;;;;;4.75;1.80;;;22.60;52.30;;;;;;4985670;28;87823;-66
2022/06/20 12:42:04;;;;;;;5.88;2.28;;;22.60;52.40;;;;;;4967139;28;87771;-66
2022/06/20 12:44:42;;;;;;;7.38;3.08;;;22.60;51.10;;;;;;4970834;28;88148;-64
2022/06/20 12:47:29;;;;;;;12.93;2.83;;;22.60;51.60;;;;;;4969423;28;90450;-63
2022/06/20 12:50:22;;;;;;;4.97;1.80;;;22.60;50.30;;;;;;4971350;28;87912;-69
2022/06/20 12:53:05;;;;;;;7.28;2.35;;;22.60;50.00;;;;;;4969996;28;87553;-64
2022/06/20 12:55:57;;;;;;;6.07;2.40;;;22.60;50.20;;;;;;4968274;28;91071;-63
2022/06/20 12:58:31;;;;;;;6.72;2.45;;;22.50;50.70;;;;;;4942628;28;88179;-63
2022/06/20 13:01:16;;;;;;;7.55;2.47;;;22.60;49.80;;;;;;4971305;28;87518;-67
2022/06/20 13:03:48;;;;;;;10.70;2.95;;;22.60;50.40;;;;;;4968850;28;88199;-64
2022/06/20 13:06:39;;;;;;;6.35;2.50;;;22.60;49.90;;;;;;4971079;28;88971;-63
2022/06/20 13:09:19;;;;;;;10.52;2.60;;;22.60;51.00;;;;;;4967837;28;87796;-65
2022/06/20 13:12:12;;;;;;;22.63;4.25;;;22.60;50.90;;;;;;4966113;28;87031;-64
2022/06/20 13:14:46;;;;;;;22.73;4.95;;;22.60;50.90;;;;;;4973051;28;88027;-67
2022/06/20 13:17:44;;;;;;;17.67;4.30;;;22.60;51.00;;;;;;4970456;28;88957;-65
2022/06/20 13:20:35;;;;;;;19.05;5.15;;;22.60;51.20;;;;;;4976743;28;87381;-65
2022/06/20 13:23:14;;;;;;;18.52;4.38;;;22.60;50.30;;;;;;4965146;28;88671;-64
2022/06/20 13:25:49;;;;;;;14.52;4.18;;;22.60;51.20;;;;;;4969035;28;89509;-66
2022/06/20 13:28:50;;;;;;;16.42;4.97;;;22.60;51.00;;;;;;4981038;28;89634;-66
2022/06/20 13:31:22;;;;;;;13.82;4.07;;;22.60;50.70;;;;;;4907185;28;88050;-69
2022/06/20 13:33:59;;;;;;;15.00;4.90;;;22.60;50.50;;;;;;4968173;28;87234;-65
2022/06/20 13:36:52;;;;;;;15.55;3.80;;;22.60;51.00;;;;;;4967531;28;89327;-68
2022/06/20 13:39:41;;;;;;;14.40;4.78;;;22.60;50.40;;;;;;4970336;28;87629;-64
2022/06/20 13:42:26;;;;;;;;;;;22.60;50.70;;;;;;4954790;28;90453;-64
2022/06/20 13:45:13;;;;;;;17.48;4.35;;;22.60;51.00;;;;;;4971853;28;87889;-69
2022/06/20 13:47:52;;;;;;;13.20;4.07;;;22.60;50.70;;;;;;4969534;28;87289;-65
2022/06/20 13:50:22;;;;;;;10.02;3.65;;;22.60;50.80;;;;;;4967903;28;89968;-64
2022/06/20 13:53:02;;;;;;;11.75;4.38;;;22.60;50.40;;;;;;4967647;28;90181;-69
2022/06/20 13:55:59;;;;;;;9.10;3.78;;;22.60;50.30;;;;;;4968647;28;87876;-66
2022/06/20 13:58:37;;;;;;;11.82;3.17;;;22.60;50.50;;;;;;4968471;28;87851;-69
2022/06/20 14:01:13;;;;;;;7.93;2.65;;;22.60;50.00;;;;;;4967727;28;88220;-67